Conde, South Dakota
Current Conditions -  °F | °C
As of 5:53 AM on Tuesday 27 Jan 2015 (Local Time) from KABR Reporting Station
Clear Clear  
Wind Chill: 26°   Ceiling: Unl
Heat Index: 26°   Visibility: 8mi
Dew Point: 24°   Wind: 3mph
Humidity: 92%   Direction: 130°SE
Pressure: 30.02"   Gusts: NA
Location:  45.16°N, 98.1°W
Report Text: KABR 271153Z AUTO 13003KT 8SM CLR M03/M04 A3002 RMK AO2 SLP180 I1000 I6001 T10331044 11006 21033 56002
Loading
Personal Weather Stations






























Interactive Weather Map New forecast layout! Learn more

10-Day Weather Forecast

Advertisements
Track Severe Weather on mobile